createdAt,value
2022-07-30T00:01:20.144Z,2.30
2022-07-30T00:03:48.999Z,2.00
2022-07-30T00:06:19.799Z,1.80
2022-07-30T00:08:48.069Z,2.10
2022-07-30T00:11:16.850Z,1.90
2022-07-30T00:13:45.113Z,2.30
2022-07-30T00:16:13.391Z,2.10
2022-07-30T00:18:42.283Z,2.20
2022-07-30T00:21:11.413Z,1.70
2022-07-30T00:23:51.129Z,2.10
2022-07-30T00:26:30.424Z,2.00
2022-07-30T00:28:59.236Z,2.10
2022-07-30T00:31:27.986Z,2.20
2022-07-30T00:33:56.264Z,2.30
2022-07-30T00:36:24.974Z,2.20
2022-07-30T00:38:53.285Z,2.20
2022-07-30T00:41:22.973Z,2.10
2022-07-30T00:43:52.538Z,2.50
2022-07-30T00:46:20.910Z,2.20
2022-07-30T00:48:49.274Z,2.20
2022-07-30T00:51:18.171Z,2.40
2022-07-30T00:53:46.422Z,2.30
2022-07-30T00:56:15.876Z,1.90
2022-07-30T00:58:45.505Z,2.20
2022-07-30T01:05:30.127Z,2.30
2022-07-30T01:07:58.920Z,2.40
2022-07-30T01:10:27.244Z,2.00
2022-07-30T01:12:59.311Z,1.90
2022-07-30T01:15:28.170Z,2.30
2022-07-30T01:18:00.236Z,2.00
2022-07-30T01:20:42.286Z,2.30
2022-07-30T01:23:23.668Z,2.10
2022-07-30T01:26:01.147Z,2.30
2022-07-30T01:28:33.941Z,2.10
2022-07-30T01:31:04.875Z,2.10
2022-07-30T01:33:37.479Z,2.40
2022-07-30T01:36:09.315Z,2.30
2022-07-30T01:38:39.391Z,2.10
2022-07-30T01:41:08.703Z,1.90
2022-07-30T01:43:39.353Z,2.20
2022-07-30T01:46:10.296Z,2.20
2022-07-30T01:48:42.877Z,2.20
2022-07-30T01:51:13.454Z,2.40
2022-07-30T01:53:49.312Z,2.20
2022-07-30T01:56:24.886Z,2.20
2022-07-30T01:58:56.336Z,2.40
2022-07-30T02:01:29.229Z,2.80
2022-07-30T02:04:03.472Z,2.30
2022-07-30T02:06:41.415Z,2.50
2022-07-30T02:09:16.396Z,2.50
2022-07-30T02:12:06.133Z,2.50
2022-07-30T02:14:41.614Z,2.80
2022-07-30T02:17:18.719Z,2.20
2022-07-30T02:19:51.891Z,2.30
2022-07-30T02:22:23.425Z,2.20
2022-07-30T02:24:53.889Z,2.10
2022-07-30T02:27:30.524Z,2.30
2022-07-30T02:30:00.921Z,2.70
2022-07-30T02:32:36.254Z,2.20
2022-07-30T02:35:12.298Z,2.30
2022-07-30T02:37:44.484Z,2.10
2022-07-30T02:40:16.733Z,2.00
2022-07-30T02:42:47.601Z,2.30
2022-07-30T02:45:19.270Z,2.50
2022-07-30T02:47:51.578Z,2.50
2022-07-30T02:50:22.286Z,2.40
2022-07-30T02:52:52.356Z,2.60
2022-07-30T02:55:21.806Z,2.60
2022-07-30T02:57:54.076Z,2.70
2022-07-30T03:00:24.673Z,2.30
2022-07-30T03:02:56.965Z,2.10
2022-07-30T03:05:26.906Z,2.60
2022-07-30T03:07:58.267Z,2.20
2022-07-30T03:10:28.872Z,2.40
2022-07-30T03:12:59.910Z,2.30
2022-07-30T03:15:29.933Z,2.60
2022-07-30T03:18:00.237Z,2.30
2022-07-30T03:20:32.478Z,2.10
2022-07-30T03:23:03.267Z,2.30
2022-07-30T03:25:33.019Z,2.40
2022-07-30T03:28:04.174Z,3.30
2022-07-30T03:30:34.908Z,2.10
2022-07-30T03:33:05.602Z,2.70
2022-07-30T03:35:34.972Z,2.70
2022-07-30T03:38:03.879Z,2.30
2022-07-30T03:40:33.074Z,2.40
2022-07-30T03:43:01.928Z,2.20
2022-07-30T03:45:31.475Z,2.30
2022-07-30T03:48:08.191Z,2.40
2022-07-30T03:50:38.685Z,2.40
2022-07-30T03:53:09.526Z,2.30
2022-07-30T03:55:53.635Z,1.90
2022-07-30T03:58:40.888Z,2.30
2022-07-30T04:01:10.258Z,2.60
2022-07-30T04:03:39.038Z,2.30
2022-07-30T04:06:08.791Z,2.10
2022-07-30T04:08:37.170Z,2.00
2022-07-30T04:11:05.444Z,2.30
2022-07-30T04:13:52.426Z,2.20
2022-07-30T04:16:38.956Z,2.40
2022-07-30T04:19:22.421Z,2.50
2022-07-30T04:21:53.963Z,2.20
2022-07-30T04:24:23.613Z,2.40
2022-07-30T04:26:52.965Z,2.40
2022-07-30T04:29:24.628Z,2.20
2022-07-30T04:31:54.989Z,2.60
2022-07-30T04:34:54.291Z,2.30
2022-07-30T04:37:40.857Z,2.70
2022-07-30T04:40:10.274Z,2.40
2022-07-30T04:42:38.673Z,2.30
2022-07-30T04:45:11.729Z,2.60
2022-07-30T04:47:54.069Z,2.70
2022-07-30T04:50:51.728Z,2.50
2022-07-30T04:53:20.822Z,2.90
2022-07-30T04:55:59.472Z,2.50
2022-07-30T04:58:30.303Z,2.40
2022-07-30T05:01:00.812Z,3.00
2022-07-30T05:03:34.662Z,2.50
2022-07-30T05:06:03.439Z,2.70
2022-07-30T05:08:34.488Z,2.70
2022-07-30T05:11:05.816Z,2.90
2022-07-30T05:13:38.119Z,2.50
2022-07-30T05:16:09.752Z,2.70
2022-07-30T05:18:38.363Z,2.80
2022-07-30T05:21:07.298Z,5.50
2022-07-30T05:23:38.640Z,4.90
2022-07-30T05:26:18.773Z,5.50
2022-07-30T05:28:52.193Z,3.80
2022-07-30T05:31:26.323Z,3.50
2022-07-30T05:34:03.404Z,3.70
2022-07-30T05:36:37.662Z,3.30
2022-07-30T05:39:06.652Z,3.70
2022-07-30T05:41:45.709Z,3.60
2022-07-30T05:44:23.596Z,3.80
2022-07-30T05:46:52.679Z,4.40
2022-07-30T05:49:21.601Z,3.50
2022-07-30T05:51:50.849Z,3.80
2022-07-30T05:54:19.577Z,3.90
2022-07-30T05:56:48.277Z,3.80
2022-07-30T05:59:20.863Z,4.80
2022-07-30T06:02:07.065Z,4.60
2022-07-30T06:04:50.395Z,4.10
2022-07-30T06:07:19.367Z,4.50
2022-07-30T06:09:47.831Z,4.60
2022-07-30T06:12:16.239Z,4.20
2022-07-30T06:14:45.132Z,4.00
2022-07-30T06:17:17.333Z,4.60
2022-07-30T06:20:12.069Z,3.90
2022-07-30T06:23:09.687Z,4.20
2022-07-30T06:26:13.907Z,4.00
2022-07-30T06:28:42.526Z,4.50
2022-07-30T06:31:25.180Z,4.90
2022-07-30T06:33:53.624Z,4.90
2022-07-30T06:36:22.061Z,4.20
2022-07-30T06:39:01.151Z,4.90
2022-07-30T06:41:55.838Z,4.10
2022-07-30T06:44:28.183Z,4.20
2022-07-30T06:47:26.366Z,4.30
2022-07-30T06:49:56.190Z,4.40
2022-07-30T06:52:25.113Z,4.30
2022-07-30T06:54:54.206Z,4.20
2022-07-30T06:57:45.633Z,4.50
2022-07-30T07:00:33.786Z,4.30
2022-07-30T07:03:11.262Z,4.90
2022-07-30T07:05:40.131Z,4.40
2022-07-30T07:08:08.949Z,4.10
2022-07-30T07:10:39.823Z,4.40
2022-07-30T07:13:17.675Z,5.20
2022-07-30T07:15:46.079Z,4.60
2022-07-30T07:18:18.485Z,4.80
2022-07-30T07:21:01.337Z,4.20
2022-07-30T07:23:41.384Z,5.30
2022-07-30T07:26:26.368Z,4.50
2022-07-30T07:28:55.036Z,4.80
2022-07-30T07:32:07.209Z,4.40
2022-07-30T07:34:16.805Z,4.30
2022-07-30T07:36:45.479Z,4.90
2022-07-30T07:39:15.158Z,4.80
2022-07-30T07:44:18.369Z,6.00
2022-07-30T07:46:47.240Z,4.60
2022-07-30T07:49:18.567Z,4.40
2022-07-30T07:51:50.823Z,4.50
2022-07-30T07:54:22.654Z,4.70
2022-07-30T07:56:53.480Z,5.00
2022-07-30T07:59:36.276Z,4.90
2022-07-30T08:02:09.440Z,4.40
2022-07-30T08:04:48.135Z,4.40
2022-07-30T08:07:17.272Z,4.70
2022-07-30T08:09:51.353Z,4.30
2022-07-30T08:12:28.815Z,4.50
2022-07-30T08:15:30.795Z,4.70
2022-07-30T08:18:18.122Z,4.40
2022-07-30T08:20:53.598Z,4.80
2022-07-30T08:23:26.124Z,4.60
2022-07-30T08:25:54.519Z,5.00
2022-07-30T08:28:35.498Z,4.70
2022-07-30T08:31:05.501Z,4.30
2022-07-30T08:33:34.238Z,5.20
2022-07-30T08:36:09.223Z,4.50
2022-07-30T08:38:39.832Z,4.80
2022-07-30T08:41:08.854Z,4.40
2022-07-30T08:43:37.791Z,4.50
2022-07-30T08:46:11.224Z,4.90
2022-07-30T08:51:24.280Z,4.40
2022-07-30T08:54:16.761Z,4.90
2022-07-30T08:56:46.125Z,4.60
2022-07-30T08:59:14.730Z,4.80
2022-07-30T09:01:42.907Z,4.70
2022-07-30T09:04:11.784Z,4.50
2022-07-30T09:06:41.081Z,4.40
2022-07-30T09:09:11.511Z,4.30
2022-07-30T09:11:42.758Z,4.60
2022-07-30T09:14:15.193Z,4.70
2022-07-30T09:16:45.713Z,4.30
2022-07-30T09:19:17.484Z,5.20
2022-07-30T09:22:01.321Z,4.50
2022-07-30T09:24:58.457Z,5.20
2022-07-30T09:27:53.011Z,4.60
2022-07-30T09:30:47.568Z,4.80
2022-07-30T09:33:38.436Z,4.80
2022-07-30T09:36:40.782Z,4.60
2022-07-30T09:39:36.559Z,4.60
2022-07-30T09:42:29.164Z,4.60
2022-07-30T09:45:07.919Z,4.60
2022-07-30T09:47:39.659Z,5.90
2022-07-30T09:50:17.887Z,4.90
2022-07-30T09:53:12.111Z,5.00
2022-07-30T09:55:43.244Z,5.00
2022-07-30T09:58:21.614Z,4.70
2022-07-30T10:01:00.328Z,4.80
2022-07-30T10:03:44.192Z,4.70
2022-07-30T10:06:38.010Z,5.10
2022-07-30T10:09:37.307Z,4.80
2022-07-30T10:12:10.681Z,4.50
2022-07-30T10:14:46.954Z,5.80
2022-07-30T10:17:18.398Z,4.80
2022-07-30T10:20:09.083Z,4.90
2022-07-30T10:22:56.939Z,5.10
2022-07-30T10:25:48.849Z,4.90
2022-07-30T10:28:43.634Z,5.20
2022-07-30T10:31:48.489Z,4.50
2022-07-30T10:34:00.610Z,5.70
2022-07-30T10:36:30.545Z,5.70
2022-07-30T10:38:58.843Z,5.80
2022-07-30T10:41:53.913Z,5.90
2022-07-30T10:44:40.929Z,5.90
2022-07-30T10:47:14.316Z,5.80
2022-07-30T10:49:50.574Z,5.50
2022-07-30T10:52:54.948Z,5.80
2022-07-30T10:55:37.051Z,6.20
2022-07-30T10:58:11.353Z,6.70
2022-07-30T11:00:51.803Z,6.90
2022-07-30T11:03:38.754Z,7.00
2022-07-30T11:06:15.430Z,6.10
2022-07-30T11:08:48.196Z,6.30
2022-07-30T11:12:00.961Z,6.00
2022-07-30T11:14:11.374Z,6.20
2022-07-30T11:16:42.232Z,6.60
2022-07-30T11:19:55.560Z,6.20
2022-07-30T11:22:32.948Z,5.90
2022-07-30T11:25:04.493Z,5.70
2022-07-30T11:27:48.637Z,5.90
2022-07-30T11:30:17.921Z,6.10
2022-07-30T11:32:51.595Z,6.00
2022-07-30T11:35:23.150Z,5.90
2022-07-30T11:38:05.449Z,6.40
2022-07-30T11:40:42.669Z,6.10
2022-07-30T11:43:34.540Z,6.50
2022-07-30T11:46:28.516Z,6.50
2022-07-30T11:49:02.759Z,6.60
2022-07-30T11:51:45.635Z,6.10
2022-07-30T11:54:14.814Z,5.90
2022-07-30T11:57:02.104Z,6.50
2022-07-30T11:59:32.712Z,5.40
2022-07-30T12:02:02.520Z,6.60
2022-07-30T12:04:30.952Z,6.20
2022-07-30T12:06:59.816Z,5.80
2022-07-30T12:09:29.682Z,6.80
2022-07-30T12:11:58.067Z,6.10
2022-07-30T12:14:36.743Z,5.50
2022-07-30T12:17:05.364Z,6.40
2022-07-30T12:19:47.732Z,6.20
2022-07-30T12:22:16.901Z,5.80
2022-07-30T12:24:46.041Z,6.30
2022-07-30T12:27:14.406Z,6.70
2022-07-30T12:29:42.727Z,7.40
2022-07-30T12:32:11.466Z,7.40
2022-07-30T12:34:39.708Z,7.40
2022-07-30T12:37:10.382Z,6.60
2022-07-30T12:39:40.584Z,6.80
2022-07-30T12:42:18.990Z,7.30
2022-07-30T12:44:49.532Z,6.50
2022-07-30T12:47:26.148Z,6.40
2022-07-30T12:50:00.002Z,7.40
2022-07-30T12:52:32.302Z,7.50
2022-07-30T12:55:05.290Z,7.40
2022-07-30T12:58:07.669Z,7.00
2022-07-30T13:00:51.305Z,6.40
2022-07-30T13:03:24.405Z,6.30
2022-07-30T13:05:55.504Z,6.90
2022-07-30T13:08:52.213Z,7.50
2022-07-30T13:11:23.624Z,7.70
2022-07-30T13:13:52.683Z,7.20
2022-07-30T13:16:21.636Z,6.70
2022-07-30T13:18:49.998Z,6.90
2022-07-30T13:21:18.264Z,6.60
2022-07-30T13:23:46.871Z,6.10
2022-07-30T13:26:15.326Z,7.00
2022-07-30T13:28:43.611Z,7.60
2022-07-30T13:31:12.768Z,7.30
2022-07-30T13:33:41.021Z,7.30
2022-07-30T13:36:09.740Z,8.20
2022-07-30T13:38:38.185Z,8.00
2022-07-30T13:41:07.365Z,8.80
2022-07-30T13:43:36.185Z,9.00
2022-07-30T13:46:06.057Z,8.40
2022-07-30T13:48:35.972Z,9.30
2022-07-30T13:51:05.357Z,8.90
2022-07-30T13:53:33.924Z,9.50
2022-07-30T13:56:03.708Z,9.30
2022-07-30T13:58:36.030Z,10.10
2022-07-30T14:01:07.463Z,9.90
2022-07-30T14:03:35.971Z,10.90
2022-07-30T14:06:10.672Z,10.50
2022-07-30T14:08:40.010Z,11.20
2022-07-30T14:11:08.621Z,11.00
2022-07-30T14:13:36.958Z,11.30
2022-07-30T14:16:22.728Z,10.60
2022-07-30T14:18:55.715Z,10.90
2022-07-30T14:21:24.656Z,10.90
2022-07-30T14:23:55.127Z,12.20
2022-07-30T14:26:23.472Z,11.30
2022-07-30T14:28:51.837Z,11.10
2022-07-30T14:31:20.064Z,11.70
2022-07-30T14:33:48.465Z,10.30
2022-07-30T14:36:17.378Z,11.20
2022-07-30T14:38:45.653Z,12.10
2022-07-30T14:41:13.957Z,11.30
2022-07-30T14:43:42.544Z,10.20
2022-07-30T14:46:10.770Z,10.60
2022-07-30T14:48:38.998Z,10.80
2022-07-30T14:51:16.217Z,10.60
2022-07-30T14:53:49.578Z,10.10
2022-07-30T14:56:18.310Z,9.50
2022-07-30T14:58:47.012Z,9.70
2022-07-30T15:01:16.073Z,8.90
2022-07-30T15:03:46.457Z,8.90
2022-07-30T15:06:15.724Z,9.20
2022-07-30T15:08:46.158Z,8.80
2022-07-30T15:11:15.886Z,9.20
2022-07-30T15:13:49.810Z,8.70
2022-07-30T15:16:19.831Z,8.70
2022-07-30T15:18:48.145Z,8.40
2022-07-30T15:21:16.713Z,8.40
2022-07-30T15:23:45.067Z,8.40
2022-07-30T15:26:13.405Z,8.30
2022-07-30T15:28:42.144Z,8.70
2022-07-30T15:31:10.756Z,8.40
2022-07-30T15:33:43.187Z,9.10
2022-07-30T15:36:12.140Z,9.10
2022-07-30T15:38:40.455Z,8.50
2022-07-30T15:41:13.266Z,7.60
2022-07-30T15:43:42.108Z,8.10
2022-07-30T15:46:10.452Z,7.00
2022-07-30T15:48:42.172Z,8.70
2022-07-30T15:51:10.720Z,7.70
2022-07-30T15:53:38.941Z,7.80
2022-07-30T15:56:07.293Z,8.30
2022-07-30T15:58:38.261Z,8.00
2022-07-30T16:01:10.485Z,7.70
2022-07-30T16:03:39.146Z,7.70
2022-07-30T16:06:07.646Z,7.40
2022-07-30T16:08:35.887Z,7.30
2022-07-30T16:11:04.811Z,7.50
2022-07-30T16:13:33.115Z,7.30
2022-07-30T16:16:01.431Z,7.50
2022-07-30T16:18:30.083Z,7.10
2022-07-30T16:21:01.267Z,7.20
2022-07-30T16:23:36.213Z,7.30
2022-07-30T16:26:06.235Z,7.00
2022-07-30T16:28:34.488Z,7.80
2022-07-30T16:31:04.252Z,7.00
2022-07-30T16:33:32.943Z,7.10
2022-07-30T16:36:01.226Z,7.00
2022-07-30T16:38:29.972Z,7.20
2022-07-30T16:40:59.024Z,7.50
2022-07-30T16:43:27.954Z,7.20
2022-07-30T16:45:56.569Z,7.40
2022-07-30T16:48:26.448Z,7.50
2022-07-30T16:50:55.493Z,6.70
2022-07-30T16:53:23.802Z,6.60
2022-07-30T16:55:52.870Z,7.80
2022-07-30T16:58:21.403Z,7.10
2022-07-30T17:00:56.813Z,7.40
2022-07-30T17:03:25.787Z,7.80
2022-07-30T17:05:54.171Z,7.40
2022-07-30T17:08:24.679Z,7.70
2022-07-30T17:10:54.045Z,7.60
2022-07-30T17:13:22.382Z,7.40
2022-07-30T17:15:50.839Z,7.00
2022-07-30T17:18:19.294Z,7.10
2022-07-30T17:20:47.842Z,7.20
2022-07-30T17:23:16.401Z,7.40
2022-07-30T17:25:44.641Z,7.70
2022-07-30T17:28:12.969Z,6.90
2022-07-30T17:30:41.444Z,6.60
2022-07-30T17:33:09.743Z,6.90
2022-07-30T17:35:38.128Z,7.00
2022-07-30T17:38:07.509Z,7.00
2022-07-30T17:40:35.798Z,8.10
2022-07-30T17:43:04.720Z,7.10
2022-07-30T17:45:37.519Z,7.30
2022-07-30T17:48:06.706Z,6.20
2022-07-30T17:50:35.863Z,7.00
2022-07-30T17:53:05.809Z,6.50
2022-07-30T17:55:36.782Z,7.10
2022-07-30T17:58:05.784Z,6.60
2022-07-30T18:00:35.511Z,5.80
2022-07-30T18:03:04.180Z,7.10
2022-07-30T18:05:32.752Z,6.40
2022-07-30T18:08:01.092Z,6.00
2022-07-30T18:10:29.865Z,6.20
2022-07-30T18:12:58.238Z,6.60
2022-07-30T18:15:46.494Z,6.00
2022-07-30T18:18:17.275Z,6.10
2022-07-30T18:20:48.468Z,5.40
2022-07-30T18:23:19.301Z,6.10
2022-07-30T18:25:51.520Z,6.60
2022-07-30T18:28:22.253Z,5.90
2022-07-30T18:30:50.956Z,6.10
2022-07-30T18:33:19.840Z,6.00
2022-07-30T18:35:48.823Z,6.10
2022-07-30T18:38:17.355Z,5.70
2022-07-30T18:40:57.695Z,5.70
2022-07-30T18:43:30.477Z,5.40
2022-07-30T18:46:00.522Z,5.60
2022-07-30T18:48:28.889Z,5.60
2022-07-30T18:50:57.213Z,5.90
2022-07-30T18:53:25.613Z,4.90
2022-07-30T18:55:54.129Z,5.50
2022-07-30T18:58:23.251Z,5.10
2022-07-30T19:00:51.526Z,5.90
2022-07-30T19:03:23.035Z,5.30
2022-07-30T19:05:52.267Z,5.70
2022-07-30T19:08:20.839Z,5.70
2022-07-30T19:10:51.783Z,5.90
2022-07-30T19:13:23.656Z,5.90
2022-07-30T19:15:52.407Z,5.70
2022-07-30T19:18:20.719Z,5.70
2022-07-30T19:20:50.772Z,5.70
2022-07-30T19:23:19.229Z,5.40
2022-07-30T19:25:50.131Z,5.50
2022-07-30T19:28:19.406Z,5.00
2022-07-30T19:30:47.849Z,5.40
2022-07-30T19:33:18.908Z,5.10
2022-07-30T19:35:47.366Z,4.90
2022-07-30T19:38:23.960Z,5.60
2022-07-30T19:40:52.637Z,4.90
2022-07-30T19:43:24.051Z,4.30
2022-07-30T19:45:53.270Z,5.10
2022-07-30T19:48:29.578Z,5.20
2022-07-30T19:51:01.702Z,4.50
2022-07-30T19:53:34.384Z,4.80
2022-07-30T19:56:08.391Z,5.40
2022-07-30T19:58:40.242Z,5.20
2022-07-30T20:01:11.202Z,4.70
2022-07-30T20:06:08.721Z,4.80
2022-07-30T20:08:44.753Z,5.00
2022-07-30T20:11:20.842Z,4.40
2022-07-30T20:14:02.058Z,4.50
2022-07-30T20:16:30.573Z,4.20
2022-07-30T20:18:59.787Z,4.20
2022-07-30T20:21:56.247Z,4.90
2022-07-30T20:24:22.169Z,4.30
2022-07-30T20:26:50.751Z,5.20
2022-07-30T20:29:20.734Z,4.30
2022-07-30T20:31:50.415Z,4.90
2022-07-30T20:34:23.630Z,4.30
2022-07-30T20:36:56.586Z,4.40
2022-07-30T20:39:25.872Z,4.70
2022-07-30T20:42:08.090Z,4.20
2022-07-30T20:44:38.924Z,4.50
2022-07-30T20:49:37.461Z,4.70
2022-07-30T20:52:07.440Z,5.00
2022-07-30T20:54:36.544Z,4.60
2022-07-30T20:57:15.669Z,4.30
2022-07-30T20:59:44.229Z,5.20
2022-07-30T21:02:15.105Z,4.60
2022-07-30T21:04:46.293Z,4.40
2022-07-30T21:07:20.553Z,4.80
2022-07-30T21:09:52.544Z,4.50
2022-07-30T21:12:32.458Z,4.40
2022-07-30T21:15:01.565Z,4.20
2022-07-30T21:17:29.950Z,4.60
2022-07-30T21:19:58.705Z,4.40
2022-07-30T21:22:27.187Z,4.40
2022-07-30T21:24:55.597Z,4.10
2022-07-30T21:27:24.859Z,4.60
2022-07-30T21:29:59.155Z,4.20
2022-07-30T21:32:28.397Z,4.70
2022-07-30T21:34:56.892Z,3.80
2022-07-30T21:37:36.522Z,3.50
2022-07-30T21:40:07.819Z,3.90
2022-07-30T21:42:48.800Z,4.00
2022-07-30T21:45:17.353Z,4.50
2022-07-30T21:47:48.231Z,3.80
2022-07-30T21:50:17.346Z,3.90
2022-07-30T21:52:45.637Z,3.60
2022-07-30T21:55:14.254Z,3.50
2022-07-30T21:57:42.437Z,3.30
2022-07-30T22:00:15.629Z,3.40
2022-07-30T22:02:52.766Z,3.60
2022-07-30T22:05:23.480Z,3.30
2022-07-30T22:08:08.872Z,3.30
2022-07-30T22:10:41.266Z,3.20
2022-07-30T22:13:11.403Z,3.00
2022-07-30T22:15:42.975Z,3.00
2022-07-30T22:18:12.156Z,3.40
2022-07-30T22:20:40.547Z,2.70
2022-07-30T22:23:09.215Z,2.80
2022-07-30T22:25:41.597Z,2.90
2022-07-30T22:28:14.012Z,2.80
2022-07-30T22:30:45.385Z,2.60
2022-07-30T22:33:16.768Z,2.70
2022-07-30T22:35:49.484Z,3.10
2022-07-30T22:41:08.129Z,3.10
2022-07-30T22:43:45.506Z,2.80
2022-07-30T22:46:19.024Z,3.00
2022-07-30T22:49:05.453Z,3.10
2022-07-30T22:52:08.831Z,2.80
2022-07-30T22:57:59.912Z,2.80
2022-07-30T23:00:28.775Z,2.60
2022-07-30T23:02:57.751Z,2.90
2022-07-30T23:05:26.436Z,2.70
2022-07-30T23:07:55.694Z,2.30
2022-07-30T23:10:25.702Z,2.80
2022-07-30T23:12:32.684Z,2.90
2022-07-30T23:12:33.746Z,2.60
2022-07-30T23:12:57.195Z,2.40
2022-07-30T23:15:25.482Z,2.70
2022-07-30T23:17:53.714Z,2.20
2022-07-30T23:20:22.475Z,2.20
2022-07-30T23:22:50.950Z,2.50
2022-07-30T23:25:21.226Z,2.00
2022-07-30T23:27:50.192Z,2.10
2022-07-30T23:30:18.343Z,2.00
2022-07-30T23:32:46.627Z,1.90
2022-07-30T23:35:16.763Z,1.80
2022-07-30T23:37:48.275Z,1.80
2022-07-30T23:40:19.045Z,1.70
2022-07-30T23:42:50.223Z,1.70
2022-07-30T23:45:19.214Z,2.40
2022-07-30T23:48:00.694Z,1.40
2022-07-30T23:50:32.845Z,1.40
2022-07-30T23:53:02.123Z,1.60
2022-07-30T23:55:32.048Z,1.20
2022-07-30T23:58:00.667Z,1.30
